sensor_id;sensor_type;location;lat;lon;timestamp;temperature;humidity
4826;DHT22;2427;50.934;6.776;2023-03-01T01:23:43;-1.50;1.00
4826;DHT22;2427;50.934;6.776;2023-03-01T01:26:17;-1.40;1.00
4826;DHT22;2427;50.934;6.776;2023-03-01T01:28:43;-1.40;1.00
4826;DHT22;2427;50.934;6.776;2023-03-01T01:31:09;-1.50;1.00
4826;DHT22;2427;50.934;6.776;2023-03-01T01:33:35;-1.50;1.00
4826;DHT22;2427;50.934;6.776;2023-03-01T01:36:03;-1.60;1.00
4826;DHT22;2427;50.934;6.776;2023-03-01T01:38:28;-1.60;1.00
4826;DHT22;2427;50.934;6.776;2023-03-01T01:40:54;-1.70;1.00
4826;DHT22;2427;50.934;6.776;2023-03-01T01:43:24;-1.70;1.00
4826;DHT22;2427;50.934;6.776;2023-03-01T01:45:51;-1.70;1.00
4826;DHT22;2427;50.934;6.776;2023-03-01T01:48:20;-1.70;1.00
4826;DHT22;2427;50.934;6.776;2023-03-01T01:50:53;-1.80;1.00
4826;DHT22;2427;50.934;6.776;2023-03-01T01:53:19;-1.80;35.00
4826;DHT22;2427;50.934;6.776;2023-03-01T01:55:51;-1.80;24.70
4826;DHT22;2427;50.934;6.776;2023-03-01T01:58:19;-1.80;38.50
4826;DHT22;2427;50.934;6.776;2023-03-01T02:11:08;-1.90;18.40
4826;DHT22;2427;50.934;6.776;2023-03-01T02:13:36;-1.90;43.70
4826;DHT22;2427;50.934;6.776;2023-03-01T02:16:13;-2.00;31.60
4826;DHT22;2427;50.934;6.776;2023-03-01T02:18:41;-2.00;63.80
4826;DHT22;2427;50.934;6.776;2023-03-01T02:26:54;-2.10;99.90
4826;DHT22;2427;50.934;6.776;2023-03-01T02:29:22;-2.10;99.90
4826;DHT22;2427;50.934;6.776;2023-03-01T02:31:49;-2.20;99.90
4826;DHT22;2427;50.934;6.776;2023-03-01T02:34:22;-2.20;99.90
4826;DHT22;2427;50.934;6.776;2023-03-01T02:37:16;-2.20;99.90
4826;DHT22;2427;50.934;6.776;2023-03-01T02:39:52;-2.30;99.90
4826;DHT22;2427;50.934;6.776;2023-03-01T02:42:26;-2.30;99.90
4826;DHT22;2427;50.934;6.776;2023-03-01T02:44:52;-2.40;99.90
4826;DHT22;2427;50.934;6.776;2023-03-01T02:47:19;-2.40;99.90
4826;DHT22;2427;50.934;6.776;2023-03-01T02:49:44;-2.50;99.90
4826;DHT22;2427;50.934;6.776;2023-03-01T02:52:45;-2.40;99.90
4826;DHT22;2427;50.934;6.776;2023-03-01T02:55:14;-2.40;99.90
4826;DHT22;2427;50.934;6.776;2023-03-01T02:57:43;-2.50;99.90
4826;DHT22;2427;50.934;6.776;2023-03-01T03:00:17;-2.50;99.90
4826;DHT22;2427;50.934;6.776;2023-03-01T03:02:47;-2.40;99.90
4826;DHT22;2427;50.934;6.776;2023-03-01T03:05:17;-2.50;99.90
4826;DHT22;2427;50.934;6.776;2023-03-01T03:07:44;-2.50;99.90
4826;DHT22;2427;50.934;6.776;2023-03-01T03:10:22;-2.50;99.90
4826;DHT22;2427;50.934;6.776;2023-03-01T03:13:00;-2.50;99.90
4826;DHT22;2427;50.934;6.776;2023-03-01T03:15:27;-2.50;99.90
4826;DHT22;2427;50.934;6.776;2023-03-01T03:17:53;-2.50;99.90
4826;DHT22;2427;50.934;6.776;2023-03-01T03:20:22;-2.50;99.90
4826;DHT22;2427;50.934;6.776;2023-03-01T03:22:50;-2.50;99.90
4826;DHT22;2427;50.934;6.776;2023-03-01T03:25:17;-2.50;99.90
4826;DHT22;2427;50.934;6.776;2023-03-01T03:27:45;-2.50;99.90
4826;DHT22;2427;50.934;6.776;2023-03-01T03:30:15;-2.50;99.90
4826;DHT22;2427;50.934;6.776;2023-03-01T03:32:42;-2.60;99.90
4826;DHT22;2427;50.934;6.776;2023-03-01T03:35:15;-2.60;99.90
4826;DHT22;2427;50.934;6.776;2023-03-01T03:37:41;-2.60;99.90
4826;DHT22;2427;50.934;6.776;2023-03-01T03:40:26;-2.60;99.90
4826;DHT22;2427;50.934;6.776;2023-03-01T03:42:52;-2.60;99.90
4826;DHT22;2427;50.934;6.776;2023-03-01T03:45:18;-2.70;99.90
4826;DHT22;2427;50.934;6.776;2023-03-01T03:47:44;-2.70;99.90
4826;DHT22;2427;50.934;6.776;2023-03-01T03:50:11;-2.80;99.90
4826;DHT22;2427;50.934;6.776;2023-03-01T03:52:37;-2.80;99.90
4826;DHT22;2427;50.934;6.776;2023-03-01T03:55:04;-2.80;99.90
4826;DHT22;2427;50.934;6.776;2023-03-01T03:57:35;-2.80;99.90
4826;DHT22;2427;50.934;6.776;2023-03-01T04:00:00;-2.80;99.90
4826;DHT22;2427;50.934;6.776;2023-03-01T04:02:26;-2.80;99.90
4826;DHT22;2427;50.934;6.776;2023-03-01T04:04:52;-2.80;99.90
4826;DHT22;2427;50.934;6.776;2023-03-01T04:07:17;-2.80;99.90
4826;DHT22;2427;50.934;6.776;2023-03-01T04:09:43;-2.80;99.90
4826;DHT22;2427;50.934;6.776;2023-03-01T04:12:10;-2.80;99.90
4826;DHT22;2427;50.934;6.776;2023-03-01T04:14:36;-2.80;99.90
4826;DHT22;2427;50.934;6.776;2023-03-01T04:17:02;-2.80;99.90
4826;DHT22;2427;50.934;6.776;2023-03-01T04:19:32;-2.70;99.90
4826;DHT22;2427;50.934;6.776;2023-03-01T04:22:02;-2.60;99.90
4826;DHT22;2427;50.934;6.776;2023-03-01T04:24:33;-2.60;99.90
4826;DHT22;2427;50.934;6.776;2023-03-01T04:26:58;-2.60;99.90
4826;DHT22;2427;50.934;6.776;2023-03-01T04:29:24;-2.50;99.90
4826;DHT22;2427;50.934;6.776;2023-03-01T04:31:49;-2.50;99.90
4826;DHT22;2427;50.934;6.776;2023-03-01T04:34:15;-2.40;99.90
4826;DHT22;2427;50.934;6.776;2023-03-01T04:36:41;-2.50;99.90
4826;DHT22;2427;50.934;6.776;2023-03-01T04:39:06;-2.50;99.90
4826;DHT22;2427;50.934;6.776;2023-03-01T04:41:38;-2.50;99.90
4826;DHT22;2427;50.934;6.776;2023-03-01T04:44:05;-2.60;99.90
4826;DHT22;2427;50.934;6.776;2023-03-01T04:46:30;-2.60;99.90
4826;DHT22;2427;50.934;6.776;2023-03-01T04:48:56;-2.60;99.90
4826;DHT22;2427;50.934;6.776;2023-03-01T04:51:22;-2.60;99.90
4826;DHT22;2427;50.934;6.776;2023-03-01T04:53:47;-2.60;99.90
4826;DHT22;2427;50.934;6.776;2023-03-01T04:56:13;-2.60;99.90
4826;DHT22;2427;50.934;6.776;2023-03-01T04:58:39;-2.70;99.90
4826;DHT22;2427;50.934;6.776;2023-03-01T05:01:13;-2.60;99.90
4826;DHT22;2427;50.934;6.776;2023-03-01T05:03:43;-2.60;99.90
4826;DHT22;2427;50.934;6.776;2023-03-01T05:06:09;-2.60;99.90
4826;DHT22;2427;50.934;6.776;2023-03-01T05:08:37;-2.50;99.90
4826;DHT22;2427;50.934;6.776;2023-03-01T05:11:02;-2.50;99.90
4826;DHT22;2427;50.934;6.776;2023-03-01T05:13:28;-2.50;99.90
4826;DHT22;2427;50.934;6.776;2023-03-01T05:15:56;-2.60;99.90
4826;DHT22;2427;50.934;6.776;2023-03-01T05:18:23;-2.60;99.90
4826;DHT22;2427;50.934;6.776;2023-03-01T05:20:51;-2.60;99.90
4826;DHT22;2427;50.934;6.776;2023-03-01T05:23:17;-2.60;99.90
4826;DHT22;2427;50.934;6.776;2023-03-01T05:25:44;-2.60;99.90
4826;DHT22;2427;50.934;6.776;2023-03-01T05:28:12;-2.70;99.90
4826;DHT22;2427;50.934;6.776;2023-03-01T05:30:38;-2.70;99.90
4826;DHT22;2427;50.934;6.776;2023-03-01T05:33:05;-2.70;99.90
4826;DHT22;2427;50.934;6.776;2023-03-01T05:35:36;-2.70;99.90
4826;DHT22;2427;50.934;6.776;2023-03-01T05:38:01;-2.80;99.90
4826;DHT22;2427;50.934;6.776;2023-03-01T05:40:27;-2.80;99.90
4826;DHT22;2427;50.934;6.776;2023-03-01T05:42:56;-2.80;99.90
4826;DHT22;2427;50.934;6.776;2023-03-01T05:45:24;-2.80;99.90
4826;DHT22;2427;50.934;6.776;2023-03-01T05:47:51;-2.80;99.90
4826;DHT22;2427;50.934;6.776;2023-03-01T05:50:24;-2.80;99.90
4826;DHT22;2427;50.934;6.776;2023-03-01T05:53:04;-2.80;99.90
4826;DHT22;2427;50.934;6.776;2023-03-01T05:55:34;-2.80;99.90
4826;DHT22;2427;50.934;6.776;2023-03-01T05:58:01;-2.80;99.90
4826;DHT22;2427;50.934;6.776;2023-03-01T06:00:28;-2.80;99.90
4826;DHT22;2427;50.934;6.776;2023-03-01T06:02:54;-2.80;99.90
4826;DHT22;2427;50.934;6.776;2023-03-01T06:05:20;-2.80;99.90
4826;DHT22;2427;50.934;6.776;2023-03-01T06:07:47;-2.80;99.90
4826;DHT22;2427;50.934;6.776;2023-03-01T06:10:13;-2.80;99.90
4826;DHT22;2427;50.934;6.776;2023-03-01T06:12:40;-2.80;99.90
4826;DHT22;2427;50.934;6.776;2023-03-01T06:15:06;-2.80;99.90
4826;DHT22;2427;50.934;6.776;2023-03-01T06:17:36;-2.80;99.90
4826;DHT22;2427;50.934;6.776;2023-03-01T06:20:10;-2.80;99.90
4826;DHT22;2427;50.934;6.776;2023-03-01T06:22:36;-2.80;99.90
4826;DHT22;2427;50.934;6.776;2023-03-01T06:25:02;-2.80;99.90
4826;DHT22;2427;50.934;6.776;2023-03-01T06:27:28;-2.90;99.90
4826;DHT22;2427;50.934;6.776;2023-03-01T06:29:54;-2.80;99.90
4826;DHT22;2427;50.934;6.776;2023-03-01T06:32:19;-2.80;99.90
4826;DHT22;2427;50.934;6.776;2023-03-01T06:34:45;-2.80;99.90
4826;DHT22;2427;50.934;6.776;2023-03-01T06:37:10;-2.80;99.90
4826;DHT22;2427;50.934;6.776;2023-03-01T06:39:36;-2.80;99.90
4826;DHT22;2427;50.934;6.776;2023-03-01T06:42:02;-2.80;99.90
4826;DHT22;2427;50.934;6.776;2023-03-01T06:44:27;-2.80;99.90
4826;DHT22;2427;50.934;6.776;2023-03-01T06:46:53;-2.80;99.90
4826;DHT22;2427;50.934;6.776;2023-03-01T06:49:19;-2.80;99.90
4826;DHT22;2427;50.934;6.776;2023-03-01T06:51:45;-2.80;99.90
4826;DHT22;2427;50.934;6.776;2023-03-01T06:54:11;-2.70;99.90
4826;DHT22;2427;50.934;6.776;2023-03-01T06:56:37;-2.70;99.90
4826;DHT22;2427;50.934;6.776;2023-03-01T06:59:03;-2.70;99.90
4826;DHT22;2427;50.934;6.776;2023-03-01T07:01:29;-2.60;99.90
4826;DHT22;2427;50.934;6.776;2023-03-01T07:03:55;-2.60;99.90
4826;DHT22;2427;50.934;6.776;2023-03-01T07:06:22;-2.50;99.90
4826;DHT22;2427;50.934;6.776;2023-03-01T07:08:47;-2.40;99.90
4826;DHT22;2427;50.934;6.776;2023-03-01T07:11:14;-2.40;99.90
4826;DHT22;2427;50.934;6.776;2023-03-01T07:13:39;-2.30;99.90
4826;DHT22;2427;50.934;6.776;2023-03-01T07:16:05;-2.20;99.90
4826;DHT22;2427;50.934;6.776;2023-03-01T07:18:31;-2.10;99.90
4826;DHT22;2427;50.934;6.776;2023-03-01T07:20:56;-2.10;99.90
4826;DHT22;2427;50.934;6.776;2023-03-01T07:23:22;-2.00;99.90
4826;DHT22;2427;50.934;6.776;2023-03-01T07:25:52;-1.90;99.90
4826;DHT22;2427;50.934;6.776;2023-03-01T07:28:18;-1.80;99.90
4826;DHT22;2427;50.934;6.776;2023-03-01T07:30:43;-1.80;99.90
4826;DHT22;2427;50.934;6.776;2023-03-01T07:33:10;-1.70;83.70
4826;DHT22;2427;50.934;6.776;2023-03-01T07:35:35;-1.60;30.00
4826;DHT22;2427;50.934;6.776;2023-03-01T07:38:01;-1.50;1.00
4826;DHT22;2427;50.934;6.776;2023-03-01T07:40:26;-1.50;1.00
4826;DHT22;2427;50.934;6.776;2023-03-01T07:42:56;-1.40;1.00
4826;DHT22;2427;50.934;6.776;2023-03-01T07:45:21;-1.30;1.00
4826;DHT22;2427;50.934;6.776;2023-03-01T07:47:47;-1.30;1.00
4826;DHT22;2427;50.934;6.776;2023-03-01T07:50:12;-1.20;1.00
4826;DHT22;2427;50.934;6.776;2023-03-01T07:52:39;-1.10;1.00
4826;DHT22;2427;50.934;6.776;2023-03-01T07:55:04;-1.00;1.00
4826;DHT22;2427;50.934;6.776;2023-03-01T07:57:30;-1.00;1.00
4826;DHT22;2427;50.934;6.776;2023-03-01T07:59:56;-0.90;1.00
4826;DHT22;2427;50.934;6.776;2023-03-01T08:02:22;-0.80;1.00
4826;DHT22;2427;50.934;6.776;2023-03-01T08:04:48;-0.80;1.00
4826;DHT22;2427;50.934;6.776;2023-03-01T08:07:13;-0.70;1.00
4826;DHT22;2427;50.934;6.776;2023-03-01T08:09:39;-0.60;1.00
4826;DHT22;2427;50.934;6.776;2023-03-01T08:12:05;-0.60;1.00
4826;DHT22;2427;50.934;6.776;2023-03-01T08:14:32;-0.50;1.00
4826;DHT22;2427;50.934;6.776;2023-03-01T08:16:57;-0.40;1.00
4826;DHT22;2427;50.934;6.776;2023-03-01T08:19:23;-0.40;1.00
4826;DHT22;2427;50.934;6.776;2023-03-01T08:21:49;-0.30;1.00
4826;DHT22;2427;50.934;6.776;2023-03-01T08:24:14;-0.20;1.00
4826;DHT22;2427;50.934;6.776;2023-03-01T08:26:40;-0.10;1.00
4826;DHT22;2427;50.934;6.776;2023-03-01T08:29:06;-0.10;1.00
4826;DHT22;2427;50.934;6.776;2023-03-01T08:31:34;0.10;99.90
4826;DHT22;2427;50.934;6.776;2023-03-01T08:34:06;0.10;99.90
4826;DHT22;2427;50.934;6.776;2023-03-01T08:36:41;0.20;99.90
4826;DHT22;2427;50.934;6.776;2023-03-01T08:39:09;0.30;99.90
4826;DHT22;2427;50.934;6.776;2023-03-01T08:41:34;0.40;99.90
4826;DHT22;2427;50.934;6.776;2023-03-01T08:44:00;0.40;99.90
4826;DHT22;2427;50.934;6.776;2023-03-01T08:46:27;0.50;99.90
4826;DHT22;2427;50.934;6.776;2023-03-01T08:48:53;0.50;99.90
4826;DHT22;2427;50.934;6.776;2023-03-01T08:51:20;0.60;99.90
4826;DHT22;2427;50.934;6.776;2023-03-01T08:53:46;0.70;99.90
4826;DHT22;2427;50.934;6.776;2023-03-01T08:56:13;0.70;99.90
4826;DHT22;2427;50.934;6.776;2023-03-01T08:58:38;0.80;99.90
4826;DHT22;2427;50.934;6.776;2023-03-01T09:01:11;0.90;99.90
4826;DHT22;2427;50.934;6.776;2023-03-01T09:03:37;1.00;99.90
4826;DHT22;2427;50.934;6.776;2023-03-01T09:06:04;1.10;99.90
4826;DHT22;2427;50.934;6.776;2023-03-01T09:08:30;1.20;99.90
4826;DHT22;2427;50.934;6.776;2023-03-01T09:10:56;1.30;99.90
4826;DHT22;2427;50.934;6.776;2023-03-01T09:13:22;1.50;99.90
4826;DHT22;2427;50.934;6.776;2023-03-01T09:15:50;1.50;99.90
4826;DHT22;2427;50.934;6.776;2023-03-01T09:18:15;1.70;99.90
4826;DHT22;2427;50.934;6.776;2023-03-01T09:20:41;1.80;99.90
4826;DHT22;2427;50.934;6.776;2023-03-01T09:23:07;1.90;99.90
4826;DHT22;2427;50.934;6.776;2023-03-01T09:25:34;2.00;99.90
4826;DHT22;2427;50.934;6.776;2023-03-01T09:28:00;2.20;99.90
4826;DHT22;2427;50.934;6.776;2023-03-01T09:30:26;2.30;99.90
4826;DHT22;2427;50.934;6.776;2023-03-01T09:32:51;2.40;99.90
4826;DHT22;2427;50.934;6.776;2023-03-01T09:35:17;2.50;99.90
4826;DHT22;2427;50.934;6.776;2023-03-01T09:37:45;2.60;99.90
4826;DHT22;2427;50.934;6.776;2023-03-01T09:40:17;2.70;99.90
4826;DHT22;2427;50.934;6.776;2023-03-01T09:43:07;2.90;99.90
4826;DHT22;2427;50.934;6.776;2023-03-01T09:45:41;3.00;99.90
4826;DHT22;2427;50.934;6.776;2023-03-01T09:48:16;3.10;99.90
4826;DHT22;2427;50.934;6.776;2023-03-01T09:50:43;3.10;99.90
4826;DHT22;2427;50.934;6.776;2023-03-01T09:53:21;3.20;99.90
4826;DHT22;2427;50.934;6.776;2023-03-01T10:04:45;3.80;99.90
4826;DHT22;2427;50.934;6.776;2023-03-01T10:07:30;3.90;99.90
4826;DHT22;2427;50.934;6.776;2023-03-01T10:09:58;4.00;99.90
4826;DHT22;2427;50.934;6.776;2023-03-01T10:12:32;4.10;99.90
4826;DHT22;2427;50.934;6.776;2023-03-01T10:17:30;4.20;99.90
4826;DHT22;2427;50.934;6.776;2023-03-01T10:22:41;4.30;99.90
4826;DHT22;2427;50.934;6.776;2023-03-01T10:25:09;4.40;99.90
4826;DHT22;2427;50.934;6.776;2023-03-01T10:27:54;4.60;99.90
4826;DHT22;2427;50.934;6.776;2023-03-01T10:30:38;4.70;99.90
4826;DHT22;2427;50.934;6.776;2023-03-01T10:33:17;4.70;99.90
4826;DHT22;2427;50.934;6.776;2023-03-01T10:35:44;4.90;99.90
4826;DHT22;2427;50.934;6.776;2023-03-01T10:38:13;4.90;99.90
4826;DHT22;2427;50.934;6.776;2023-03-01T10:40:53;5.00;99.90
4826;DHT22;2427;50.934;6.776;2023-03-01T10:43:19;5.10;99.90
4826;DHT22;2427;50.934;6.776;2023-03-01T10:45:45;5.20;99.90
4826;DHT22;2427;50.934;6.776;2023-03-01T10:48:20;5.30;99.90
4826;DHT22;2427;50.934;6.776;2023-03-01T10:51:22;5.40;99.90
4826;DHT22;2427;50.934;6.776;2023-03-01T10:53:42;5.50;99.90
4826;DHT22;2427;50.934;6.776;2023-03-01T10:56:11;5.70;99.90
4826;DHT22;2427;50.934;6.776;2023-03-01T10:58:40;5.80;99.90
4826;DHT22;2427;50.934;6.776;2023-03-01T11:01:26;5.80;99.90
4826;DHT22;2427;50.934;6.776;2023-03-01T11:04:11;5.90;99.90
4826;DHT22;2427;50.934;6.776;2023-03-01T11:06:39;6.00;99.90
4826;DHT22;2427;50.934;6.776;2023-03-01T11:09:21;6.20;99.90
4826;DHT22;2427;50.934;6.776;2023-03-01T11:11:53;6.30;99.90
4826;DHT22;2427;50.934;6.776;2023-03-01T11:14:24;6.50;99.90
4826;DHT22;2427;50.934;6.776;2023-03-01T11:17:05;6.70;99.90
4826;DHT22;2427;50.934;6.776;2023-03-01T11:19:37;6.70;99.90
4826;DHT22;2427;50.934;6.776;2023-03-01T11:22:07;6.80;99.90
4826;DHT22;2427;50.934;6.776;2023-03-01T11:24:43;7.00;99.90
4826;DHT22;2427;50.934;6.776;2023-03-01T11:27:21;7.00;99.90
4826;DHT22;2427;50.934;6.776;2023-03-01T11:29:58;7.10;99.90
4826;DHT22;2427;50.934;6.776;2023-03-01T11:32:29;7.30;99.90
4826;DHT22;2427;50.934;6.776;2023-03-01T11:35:02;7.40;99.90
4826;DHT22;2427;50.934;6.776;2023-03-01T11:37:49;7.50;99.90
4826;DHT22;2427;50.934;6.776;2023-03-01T11:40:33;7.60;99.90
4826;DHT22;2427;50.934;6.776;2023-03-01T11:43:05;7.80;99.90
4826;DHT22;2427;50.934;6.776;2023-03-01T11:45:55;7.90;99.90
4826;DHT22;2427;50.934;6.776;2023-03-01T11:51:03;8.10;99.90
4826;DHT22;2427;50.934;6.776;2023-03-01T11:53:48;8.30;99.90
4826;DHT22;2427;50.934;6.776;2023-03-01T11:56:31;8.50;99.90
4826;DHT22;2427;50.934;6.776;2023-03-01T12:07:39;9.20;99.90
4826;DHT22;2427;50.934;6.776;2023-03-01T12:16:06;9.80;99.90
4826;DHT22;2427;50.934;6.776;2023-03-01T12:19:01;10.00;99.90
4826;DHT22;2427;50.934;6.776;2023-03-01T12:22:04;10.20;99.90
4826;DHT22;2427;50.934;6.776;2023-03-01T12:27:50;11.10;99.90
4826;DHT22;2427;50.934;6.776;2023-03-01T12:38:42;16.00;99.90
4826;DHT22;2427;50.934;6.776;2023-03-01T12:44:23;18.20;99.90
4826;DHT22;2427;50.934;6.776;2023-03-01T12:49:22;19.10;99.90
4826;DHT22;2427;50.934;6.776;2023-03-01T12:51:58;19.90;99.90
4826;DHT22;2427;50.934;6.776;2023-03-01T12:54:31;21.00;99.90
4826;DHT22;2427;50.934;6.776;2023-03-01T12:57:17;21.30;99.90
4826;DHT22;2427;50.934;6.776;2023-03-01T13:02:53;22.80;99.90
4826;DHT22;2427;50.934;6.776;2023-03-01T13:08:05;23.60;99.90
4826;DHT22;2427;50.934;6.776;2023-03-01T13:10:47;24.20;99.90
4826;DHT22;2427;50.934;6.776;2023-03-01T13:13:23;24.70;99.90
4826;DHT22;2427;50.934;6.776;2023-03-01T13:15:49;25.00;99.90
4826;DHT22;2427;50.934;6.776;2023-03-01T13:26:04;26.60;99.90
4826;DHT22;2427;50.934;6.776;2023-03-01T13:28:52;26.30;99.90
4826;DHT22;2427;50.934;6.776;2023-03-01T13:33:59;26.40;99.90
4826;DHT22;2427;50.934;6.776;2023-03-01T13:44:32;26.90;99.90
4826;DHT22;2427;50.934;6.776;2023-03-01T13:47:14;27.00;99.90
4826;DHT22;2427;50.934;6.776;2023-03-01T13:49:55;26.90;99.90
4826;DHT22;2427;50.934;6.776;2023-03-01T13:54:51;26.40;97.50
4826;DHT22;2427;50.934;6.776;2023-03-01T13:57:24;27.00;98.20
4826;DHT22;2427;50.934;6.776;2023-03-01T13:59:51;27.20;97.20
4826;DHT22;2427;50.934;6.776;2023-03-01T14:02:17;27.00;95.10
4826;DHT22;2427;50.934;6.776;2023-03-01T14:04:42;26.70;92.80
4826;DHT22;2427;50.934;6.776;2023-03-01T14:07:11;26.20;91.00
4826;DHT22;2427;50.934;6.776;2023-03-01T14:09:40;25.80;87.30
4826;DHT22;2427;50.934;6.776;2023-03-01T14:12:37;25.50;85.00
4826;DHT22;2427;50.934;6.776;2023-03-01T14:18:24;25.80;81.10
4826;DHT22;2427;50.934;6.776;2023-03-01T14:20:52;26.00;81.70
4826;DHT22;2427;50.934;6.776;2023-03-01T14:23:21;25.90;78.90
4826;DHT22;2427;50.934;6.776;2023-03-01T14:25:55;26.00;77.30
4826;DHT22;2427;50.934;6.776;2023-03-01T14:28:27;26.30;77.20
4826;DHT22;2427;50.934;6.776;2023-03-01T14:30:55;26.10;75.30
4826;DHT22;2427;50.934;6.776;2023-03-01T14:33:33;26.30;73.40
4826;DHT22;2427;50.934;6.776;2023-03-01T14:36:04;26.30;72.20
4826;DHT22;2427;50.934;6.776;2023-03-01T14:38:41;26.70;71.50
4826;DHT22;2427;50.934;6.776;2023-03-01T14:43:36;26.20;66.00
4826;DHT22;2427;50.934;6.776;2023-03-01T14:46:02;25.60;61.00
4826;DHT22;2427;50.934;6.776;2023-03-01T14:48:29;25.80;62.00
4826;DHT22;2427;50.934;6.776;2023-03-01T14:50:56;25.70;60.20
4826;DHT22;2427;50.934;6.776;2023-03-01T14:53:27;25.30;57.30
4826;DHT22;2427;50.934;6.776;2023-03-01T14:56:00;25.40;56.90
4826;DHT22;2427;50.934;6.776;2023-03-01T14:58:32;25.30;54.90
4826;DHT22;2427;50.934;6.776;2023-03-01T15:01:04;25.00;53.00
4826;DHT22;2427;50.934;6.776;2023-03-01T15:03:35;24.70;51.50
4826;DHT22;2427;50.934;6.776;2023-03-01T15:06:07;24.40;48.20
4826;DHT22;2427;50.934;6.776;2023-03-01T15:08:35;23.10;42.30
4826;DHT22;2427;50.934;6.776;2023-03-01T15:13:53;18.90;24.50
4826;DHT22;2427;50.934;6.776;2023-03-01T15:16:31;16.80;17.20
4826;DHT22;2427;50.934;6.776;2023-03-01T15:19:04;15.10;11.10
4826;DHT22;2427;50.934;6.776;2023-03-01T15:21:36;13.90;8.00
4826;DHT22;2427;50.934;6.776;2023-03-01T15:24:16;13.00;7.30
4826;DHT22;2427;50.934;6.776;2023-03-01T15:27:00;12.40;4.90
4826;DHT22;2427;50.934;6.776;2023-03-01T15:29:33;11.60;4.20
4826;DHT22;2427;50.934;6.776;2023-03-01T15:32:23;11.10;3.30
4826;DHT22;2427;50.934;6.776;2023-03-01T15:34:49;10.70;3.50
4826;DHT22;2427;50.934;6.776;2023-03-01T15:37:38;10.40;3.90
4826;DHT22;2427;50.934;6.776;2023-03-01T15:40:23;10.00;4.20
4826;DHT22;2427;50.934;6.776;2023-03-01T15:43:00;9.80;5.40
4826;DHT22;2427;50.934;6.776;2023-03-01T15:45:28;9.50;5.00
4826;DHT22;2427;50.934;6.776;2023-03-01T15:47:58;9.30;6.50
4826;DHT22;2427;50.934;6.776;2023-03-01T15:50:33;9.10;6.70
4826;DHT22;2427;50.934;6.776;2023-03-01T15:53:01;8.90;7.70
4826;DHT22;2427;50.934;6.776;2023-03-01T15:55:28;8.70;8.80
4826;DHT22;2427;50.934;6.776;2023-03-01T15:58:04;8.60;9.70
4826;DHT22;2427;50.934;6.776;2023-03-01T16:00:32;8.40;10.60
4826;DHT22;2427;50.934;6.776;2023-03-01T16:02:58;8.30;20.80
4826;DHT22;2427;50.934;6.776;2023-03-01T16:07:50;8.10;13.30
4826;DHT22;2427;50.934;6.776;2023-03-01T16:10:16;8.00;14.20
4826;DHT22;2427;50.934;6.776;2023-03-01T16:12:42;7.90;14.60
4826;DHT22;2427;50.934;6.776;2023-03-01T16:15:19;7.80;15.60
4826;DHT22;2427;50.934;6.776;2023-03-01T16:17:45;7.60;16.10
4826;DHT22;2427;50.934;6.776;2023-03-01T16:20:11;7.50;16.90
4826;DHT22;2427;50.934;6.776;2023-03-01T16:22:37;7.40;18.00
4826;DHT22;2427;50.934;6.776;2023-03-01T16:25:03;7.40;19.10
4826;DHT22;2427;50.934;6.776;2023-03-01T16:27:28;7.20;19.90
4826;DHT22;2427;50.934;6.776;2023-03-01T16:29:54;7.20;20.90
4826;DHT22;2427;50.934;6.776;2023-03-01T16:32:20;7.00;21.40
4826;DHT22;2427;50.934;6.776;2023-03-01T16:34:45;6.90;22.00
4826;DHT22;2427;50.934;6.776;2023-03-01T16:37:14;6.90;23.20
4826;DHT22;2427;50.934;6.776;2023-03-01T16:39:40;6.80;24.40
4826;DHT22;2427;50.934;6.776;2023-03-01T16:42:06;6.70;24.40
4826;DHT22;2427;50.934;6.776;2023-03-01T16:44:31;6.70;25.50
4826;DHT22;2427;50.934;6.776;2023-03-01T16:46:57;6.60;26.30
4826;DHT22;2427;50.934;6.776;2023-03-01T16:49:23;6.50;26.90
4826;DHT22;2427;50.934;6.776;2023-03-01T16:51:48;6.40;27.20
4826;DHT22;2427;50.934;6.776;2023-03-01T16:54:14;6.30;28.00
4826;DHT22;2427;50.934;6.776;2023-03-01T16:56:39;6.10;29.00
4826;DHT22;2427;50.934;6.776;2023-03-01T16:59:06;6.10;30.00
4826;DHT22;2427;50.934;6.776;2023-03-01T17:01:31;6.00;30.70
4826;DHT22;2427;50.934;6.776;2023-03-01T17:04:08;6.00;32.20
4826;DHT22;2427;50.934;6.776;2023-03-01T17:06:35;5.90;33.00
4826;DHT22;2427;50.934;6.776;2023-03-01T17:09:01;5.70;34.80
4826;DHT22;2427;50.934;6.776;2023-03-01T17:11:27;5.60;36.00
4826;DHT22;2427;50.934;6.776;2023-03-01T17:13:52;5.60;36.90
4826;DHT22;2427;50.934;6.776;2023-03-01T17:16:21;5.50;37.10
4826;DHT22;2427;50.934;6.776;2023-03-01T17:18:48;5.40;39.90
4826;DHT22;2427;50.934;6.776;2023-03-01T17:21:14;5.30;40.10
4826;DHT22;2427;50.934;6.776;2023-03-01T17:23:42;5.20;41.20
4826;DHT22;2427;50.934;6.776;2023-03-01T17:26:08;5.10;42.50
4826;DHT22;2427;50.934;6.776;2023-03-01T17:28:35;5.00;42.90
4826;DHT22;2427;50.934;6.776;2023-03-01T17:31:03;4.90;45.00
4826;DHT22;2427;50.934;6.776;2023-03-01T17:33:29;4.80;46.00
4826;DHT22;2427;50.934;6.776;2023-03-01T17:35:56;4.80;46.50
4826;DHT22;2427;50.934;6.776;2023-03-01T17:38:22;4.70;47.80
4826;DHT22;2427;50.934;6.776;2023-03-01T17:40:47;4.70;49.10
4826;DHT22;2427;50.934;6.776;2023-03-01T17:43:15;4.60;50.00
4826;DHT22;2427;50.934;6.776;2023-03-01T17:45:41;4.60;52.20
4826;DHT22;2427;50.934;6.776;2023-03-01T17:48:09;4.50;52.40
4826;DHT22;2427;50.934;6.776;2023-03-01T17:50:37;4.50;53.20
4826;DHT22;2427;50.934;6.776;2023-03-01T17:53:03;4.40;53.90
4826;DHT22;2427;50.934;6.776;2023-03-01T17:55:37;4.30;56.00
4826;DHT22;2427;50.934;6.776;2023-03-01T17:58:04;4.30;57.10
4826;DHT22;2427;50.934;6.776;2023-03-01T18:00:31;4.20;59.00
4826;DHT22;2427;50.934;6.776;2023-03-01T18:02:57;4.10;60.70
4826;DHT22;2427;50.934;6.776;2023-03-01T18:05:23;4.10;61.70
4826;DHT22;2427;50.934;6.776;2023-03-01T18:07:50;4.00;64.20
4826;DHT22;2427;50.934;6.776;2023-03-01T18:10:17;4.00;65.10
4826;DHT22;2427;50.934;6.776;2023-03-01T18:12:43;4.00;67.80
4826;DHT22;2427;50.934;6.776;2023-03-01T18:15:09;3.90;68.40
4826;DHT22;2427;50.934;6.776;2023-03-01T18:17:35;3.80;71.20
4826;DHT22;2427;50.934;6.776;2023-03-01T18:20:00;3.80;73.60
4826;DHT22;2427;50.934;6.776;2023-03-01T18:22:26;3.70;75.50
4826;DHT22;2427;50.934;6.776;2023-03-01T18:24:52;3.70;90.90
4826;DHT22;2427;50.934;6.776;2023-03-01T18:27:17;3.60;77.70
4826;DHT22;2427;50.934;6.776;2023-03-01T18:29:43;3.60;78.80
4826;DHT22;2427;50.934;6.776;2023-03-01T18:32:08;3.60;80.50
4826;DHT22;2427;50.934;6.776;2023-03-01T18:34:34;3.60;81.20
4826;DHT22;2427;50.934;6.776;2023-03-01T18:37:00;3.50;82.40
4826;DHT22;2427;50.934;6.776;2023-03-01T18:39:26;3.50;82.90
4826;DHT22;2427;50.934;6.776;2023-03-01T18:41:52;3.50;84.30
4826;DHT22;2427;50.934;6.776;2023-03-01T18:44:17;3.40;85.00
4826;DHT22;2427;50.934;6.776;2023-03-01T18:46:43;3.40;86.60
4826;DHT22;2427;50.934;6.776;2023-03-01T18:49:11;3.40;88.60
4826;DHT22;2427;50.934;6.776;2023-03-01T18:51:38;3.40;89.40
4826;DHT22;2427;50.934;6.776;2023-03-01T18:54:05;3.30;90.20
4826;DHT22;2427;50.934;6.776;2023-03-01T18:56:32;3.30;90.70
4826;DHT22;2427;50.934;6.776;2023-03-01T18:58:58;3.30;91.20
4826;DHT22;2427;50.934;6.776;2023-03-01T19:01:26;3.30;91.60
4826;DHT22;2427;50.934;6.776;2023-03-01T19:03:52;3.20;92.10
4826;DHT22;2427;50.934;6.776;2023-03-01T19:06:18;3.20;92.90
4826;DHT22;2427;50.934;6.776;2023-03-01T19:08:45;3.20;93.40
4826;DHT22;2427;50.934;6.776;2023-03-01T19:11:12;3.20;94.30
4826;DHT22;2427;50.934;6.776;2023-03-01T19:13:39;3.10;98.90
4826;DHT22;2427;50.934;6.776;2023-03-01T19:16:10;3.10;95.30
4826;DHT22;2427;50.934;6.776;2023-03-01T19:18:37;3.00;96.20
4826;DHT22;2427;50.934;6.776;2023-03-01T19:21:07;3.00;96.80
4826;DHT22;2427;50.934;6.776;2023-03-01T19:23:34;2.90;97.60
4826;DHT22;2427;50.934;6.776;2023-03-01T19:26:05;2.90;98.30
4826;DHT22;2427;50.934;6.776;2023-03-01T19:28:31;2.90;99.40